LFJL/ETZ METAR and TAF weather

Enter ICAO airport designator
Station Type Date Time Source
LFJL METAR 2020/07/10 21:00 UTC NOAA

LFJL 102100Z AUTO 36007KT CAVOK 17/12 Q1018 TEMPO SCT030TCU


Station Type Date Time Source
LFJL Decoded METAR 2020/07/10 21:00 UTC NOAA

Metz-Nancy-Lorraine, France (LFJL) 48-59N 006-15E
Jul 10, 2020 - 05:00 PM EDT / 2020.07.10 2100 UTC
Wind: from the N (360 degrees) at 8 MPH (7 KT):0
Visibility: greater than 7 mile(s):0
Weather: Towering cumulus clouds observed
Temperature: 62 F (17 C)
Dew Point: 53 F (12 C)
Relative Humidity: 72%
Pressure (altimeter): 30.06 in. Hg (1018 hPa)
ob: LFJL 102100Z AUTO 36007KT CAVOK 17/12 Q1018 TEMPO SCT030TCU
cycle: 21

Station Type Date Time Source
LFJL TAF 2020/07/10 18:21 UTC NOAA

TAF LFJL 101700Z 1018/1118 34008KT 9999 SCT040 BKN100 PROB30
TEMPO 1020/1101 -SHRA SCT030TCU

Example: see airport list